createdAt,value
2018-09-14T00:00:06.973Z,16.10
2018-09-14T00:02:35.559Z,16.00
2018-09-14T00:05:05.804Z,16.00
2018-09-14T00:07:34.718Z,16.00
2018-09-14T00:10:04.042Z,15.90
2018-09-14T00:12:33.371Z,15.90
2018-09-14T00:15:02.513Z,15.90
2018-09-14T00:17:31.723Z,15.80
2018-09-14T00:20:01.073Z,15.80
2018-09-14T00:22:30.715Z,15.80
2018-09-14T00:24:59.404Z,15.70
2018-09-14T00:27:27.865Z,15.70
2018-09-14T00:29:56.508Z,15.70
2018-09-14T00:32:25.583Z,15.60
2018-09-14T00:34:54.080Z,15.60
2018-09-14T00:37:22.673Z,15.60
2018-09-14T00:39:51.018Z,15.60
2018-09-14T00:42:19.455Z,15.60
2018-09-14T00:44:47.939Z,15.60
2018-09-14T00:47:17.235Z,15.50
2018-09-14T00:49:45.779Z,15.40
2018-09-14T00:52:14.249Z,15.30
2018-09-14T00:54:42.789Z,15.20
2018-09-14T00:57:11.221Z,15.20
2018-09-14T00:59:39.748Z,15.10
2018-09-14T01:02:08.247Z,15.10
2018-09-14T01:04:36.675Z,15.10
2018-09-14T01:07:05.289Z,15.00
2018-09-14T01:09:33.770Z,15.00
2018-09-14T01:12:02.459Z,15.00
2018-09-14T01:14:31.236Z,15.00
2018-09-14T01:16:59.686Z,15.00
2018-09-14T01:19:28.751Z,15.00
2018-09-14T01:21:57.198Z,15.00
2018-09-14T01:24:25.767Z,15.00
2018-09-14T01:26:54.272Z,14.90
2018-09-14T01:29:22.876Z,14.90
2018-09-14T01:31:51.407Z,14.90
2018-09-14T01:34:20.198Z,14.90
2018-09-14T01:36:49.074Z,14.90
2018-09-14T01:39:17.732Z,14.80
2018-09-14T01:41:47.256Z,14.80
2018-09-14T01:44:15.901Z,14.80
2018-09-14T01:46:44.753Z,14.80
2018-09-14T01:49:13.375Z,14.70
2018-09-14T01:51:42.075Z,14.70
2018-09-14T01:54:10.598Z,14.60
2018-09-14T01:56:39.023Z,14.60
2018-09-14T01:59:07.497Z,14.50
2018-09-14T02:01:35.950Z,14.40
2018-09-14T02:04:04.374Z,14.50
2018-09-14T02:06:32.775Z,14.40
2018-09-14T02:09:01.130Z,14.30
2018-09-14T02:11:30.384Z,14.30
2018-09-14T02:15:13.772Z,14.20
2018-09-14T02:17:42.301Z,14.20
2018-09-14T02:20:10.829Z,14.10
2018-09-14T02:22:39.285Z,14.00
2018-09-14T02:25:07.844Z,14.00
2018-09-14T02:27:36.466Z,14.00
2018-09-14T02:30:05.425Z,14.00
2018-09-14T02:32:33.849Z,14.10
2018-09-14T02:35:02.493Z,14.00
2018-09-14T02:37:31.192Z,14.00
2018-09-14T02:39:59.926Z,14.00
2018-09-14T02:42:28.362Z,14.00
2018-09-14T02:44:57.127Z,14.00
2018-09-14T02:47:25.797Z,14.00
2018-09-14T02:49:54.246Z,13.90
2018-09-14T02:52:22.878Z,13.80
2018-09-14T02:54:51.388Z,13.80
2018-09-14T02:57:19.926Z,13.80
2018-09-14T02:59:48.380Z,13.80
2018-09-14T03:02:16.970Z,13.80
2018-09-14T03:04:46.006Z,13.80
2018-09-14T03:07:16.088Z,13.70
2018-09-14T03:09:45.389Z,13.70
2018-09-14T03:12:14.319Z,13.70
2018-09-14T03:14:43.789Z,13.60
2018-09-14T03:17:12.252Z,13.50
2018-09-14T03:19:40.768Z,13.50
2018-09-14T03:22:09.156Z,13.50
2018-09-14T03:24:37.797Z,13.50
2018-09-14T03:27:06.669Z,13.50
2018-09-14T03:29:35.090Z,13.50
2018-09-14T03:32:03.584Z,13.50
2018-09-14T03:34:31.988Z,13.40
2018-09-14T03:37:00.335Z,13.40
2018-09-14T03:39:29.313Z,13.30
2018-09-14T03:41:57.873Z,13.30
2018-09-14T03:44:26.354Z,13.30
2018-09-14T03:46:55.005Z,13.30
2018-09-14T03:49:23.475Z,13.30
2018-09-14T03:51:52.220Z,13.20
2018-09-14T03:54:21.107Z,13.20
2018-09-14T03:56:49.460Z,13.20
2018-09-14T03:59:17.968Z,13.20
2018-09-14T04:01:46.352Z,13.20
2018-09-14T04:04:14.769Z,13.20
2018-09-14T04:06:43.393Z,13.20
2018-09-14T04:09:12.736Z,13.30
2018-09-14T04:11:41.258Z,13.20
2018-09-14T04:14:10.141Z,13.20
2018-09-14T04:16:38.946Z,13.30
2018-09-14T04:19:07.475Z,13.30
2018-09-14T04:21:37.228Z,13.30
2018-09-14T04:24:05.963Z,13.30
2018-09-14T04:26:35.176Z,13.20
2018-09-14T04:29:03.713Z,13.30
2018-09-14T04:31:32.362Z,13.30
2018-09-14T04:34:01.050Z,13.20
2018-09-14T04:36:29.738Z,13.10
2018-09-14T04:38:58.603Z,13.10
2018-09-14T04:41:27.548Z,13.10
2018-09-14T04:43:56.082Z,13.00
2018-09-14T04:46:24.708Z,13.10
2018-09-14T04:48:53.111Z,13.00
2018-09-14T04:51:21.643Z,13.00
2018-09-14T04:53:50.365Z,13.00
2018-09-14T04:56:19.167Z,12.90
2018-09-14T04:58:48.219Z,12.90
2018-09-14T05:01:17.010Z,12.80
2018-09-14T05:03:45.700Z,12.80
2018-09-14T05:06:14.270Z,12.70
2018-09-14T05:08:42.830Z,12.70
2018-09-14T05:11:11.494Z,12.60
2018-09-14T05:13:39.981Z,12.60
2018-09-14T05:16:08.519Z,12.60
2018-09-14T05:18:37.222Z,12.60
2018-09-14T05:21:06.034Z,12.60
2018-09-14T05:23:34.639Z,12.60
2018-09-14T05:26:03.047Z,12.60
2018-09-14T05:28:31.623Z,12.60
2018-09-14T05:31:00.191Z,12.50
2018-09-14T05:33:28.576Z,12.50
2018-09-14T05:35:57.188Z,12.50
2018-09-14T05:38:25.631Z,12.60
2018-09-14T05:40:54.265Z,12.50
2018-09-14T05:43:22.938Z,12.50
2018-09-14T05:45:51.492Z,12.60
2018-09-14T05:48:19.935Z,12.60
2018-09-14T05:50:48.605Z,12.60
2018-09-14T05:53:17.162Z,12.70
2018-09-14T05:55:45.615Z,12.70
2018-09-14T05:58:14.248Z,12.70
2018-09-14T06:00:42.766Z,12.70
2018-09-14T06:03:11.377Z,12.70
2018-09-14T06:05:40.071Z,12.70
2018-09-14T06:08:08.426Z,12.70
2018-09-14T06:10:37.187Z,12.80
2018-09-14T06:13:06.126Z,12.80
2018-09-14T06:15:34.588Z,12.90
2018-09-14T06:18:03.896Z,12.90
2018-09-14T06:20:32.552Z,12.90
2018-09-14T06:23:00.994Z,12.90
2018-09-14T06:25:29.535Z,13.00
2018-09-14T06:27:58.065Z,13.00
2018-09-14T06:30:26.649Z,13.10
2018-09-14T06:32:55.046Z,13.20
2018-09-14T06:35:23.627Z,13.20
2018-09-14T06:37:52.036Z,13.30
2018-09-14T06:40:20.440Z,13.40
2018-09-14T06:42:48.882Z,13.40
2018-09-14T06:45:17.355Z,13.50
2018-09-14T06:47:45.725Z,13.50
2018-09-14T06:50:14.306Z,13.60
2018-09-14T06:52:42.904Z,13.60
2018-09-14T06:55:11.380Z,13.70
2018-09-14T06:57:39.827Z,13.80
2018-09-14T07:00:08.516Z,13.90
2018-09-14T07:02:36.970Z,13.90
2018-09-14T07:05:05.506Z,13.90
2018-09-14T07:07:33.888Z,14.00
2018-09-14T07:10:02.280Z,14.10
2018-09-14T07:12:31.354Z,14.20
2018-09-14T07:15:00.096Z,14.30
2018-09-14T07:17:29.232Z,14.30
2018-09-14T07:19:57.814Z,14.40
2018-09-14T07:22:26.308Z,14.50
2018-09-14T07:24:54.831Z,14.50
2018-09-14T07:27:23.292Z,14.60
2018-09-14T07:29:51.962Z,14.60
2018-09-14T07:32:20.498Z,14.70
2018-09-14T07:34:49.124Z,14.80
2018-09-14T07:37:17.585Z,14.90
2018-09-14T07:39:46.231Z,15.00
2018-09-14T07:42:14.821Z,15.10
2018-09-14T07:44:43.235Z,15.20
2018-09-14T07:47:11.663Z,15.20
2018-09-14T07:49:40.119Z,15.30
2018-09-14T07:52:08.702Z,15.40
2018-09-14T07:54:37.299Z,15.40
2018-09-14T07:57:06.816Z,15.50
2018-09-14T07:59:35.369Z,15.60
2018-09-14T08:02:04.315Z,15.70
2018-09-14T08:04:33.137Z,15.80
2018-09-14T08:07:01.889Z,15.90
2018-09-14T08:09:30.472Z,15.90
2018-09-14T08:11:59.215Z,16.00
2018-09-14T08:14:27.562Z,16.10
2018-09-14T08:16:56.044Z,16.20
2018-09-14T08:19:24.888Z,16.30
2018-09-14T08:21:53.573Z,16.40
2018-09-14T08:24:22.150Z,16.50
2018-09-14T08:26:50.688Z,16.60
2018-09-14T08:29:19.057Z,16.70
2018-09-14T08:31:47.576Z,16.80
2018-09-14T08:34:16.144Z,16.90
2018-09-14T08:36:45.223Z,17.00
2018-09-14T08:39:13.837Z,17.10
2018-09-14T08:41:42.492Z,17.20
2018-09-14T08:44:11.127Z,17.30
2018-09-14T08:46:39.977Z,17.30
2018-09-14T08:49:09.033Z,17.50
2018-09-14T08:51:37.540Z,17.60
2018-09-14T08:54:06.038Z,17.60
2018-09-14T08:56:34.810Z,17.80
2018-09-14T08:59:04.069Z,17.90
2018-09-14T09:01:33.045Z,17.90
2018-09-14T09:04:01.528Z,18.00
2018-09-14T09:06:29.925Z,18.00
2018-09-14T09:08:58.582Z,18.10
2018-09-14T09:11:27.320Z,18.10
2018-09-14T09:13:55.771Z,18.10
2018-09-14T09:16:24.172Z,18.10
2018-09-14T09:18:52.615Z,18.10
2018-09-14T09:21:21.020Z,18.20
2018-09-14T09:23:49.667Z,18.30
2018-09-14T09:26:18.131Z,18.50
2018-09-14T09:28:46.460Z,18.60
2018-09-14T09:31:14.867Z,18.60
2018-09-14T09:33:43.291Z,18.80
2018-09-14T09:36:11.786Z,18.90
2018-09-14T09:38:40.195Z,19.00
2018-09-14T09:41:08.595Z,19.20
2018-09-14T09:43:37.059Z,19.30
2018-09-14T09:46:05.942Z,19.40
2018-09-14T09:48:34.311Z,19.50
2018-09-14T09:51:03.597Z,19.70
2018-09-14T09:53:32.227Z,19.80
2018-09-14T09:56:01.208Z,19.90
2018-09-14T09:58:29.638Z,20.00
2018-09-14T10:01:03.263Z,20.10
2018-09-14T10:04:34.994Z,20.30
2018-09-14T10:07:03.656Z,20.40
2018-09-14T10:09:32.066Z,20.50
2018-09-14T10:12:00.586Z,20.70
2018-09-14T10:14:29.205Z,20.80
2018-09-14T10:16:57.588Z,20.90
2018-09-14T10:19:26.028Z,21.00
2018-09-14T10:21:54.403Z,21.10
2018-09-14T10:24:22.788Z,21.20
2018-09-14T10:26:51.473Z,21.20
2018-09-14T10:29:19.919Z,21.30
2018-09-14T10:31:48.279Z,21.40
2018-09-14T10:34:16.678Z,21.30
2018-09-14T10:36:45.292Z,21.30
2018-09-14T10:39:13.664Z,21.40
2018-09-14T10:41:42.191Z,21.50
2018-09-14T10:44:10.582Z,21.60
2018-09-14T10:46:39.106Z,21.70
2018-09-14T10:49:08.271Z,21.90
2018-09-14T10:51:37.764Z,22.00
2018-09-14T10:54:07.410Z,22.10
2018-09-14T10:56:37.135Z,22.10
2018-09-14T10:59:06.518Z,22.10
2018-09-14T11:01:35.597Z,22.20
2018-09-14T11:04:04.673Z,22.10
2018-09-14T11:06:33.685Z,22.20
2018-09-14T11:09:03.091Z,22.10
2018-09-14T11:11:32.290Z,22.10
2018-09-14T11:14:01.711Z,22.00
2018-09-14T11:16:30.872Z,22.10
2018-09-14T11:19:00.419Z,22.20
2018-09-14T11:21:29.568Z,22.30
2018-09-14T11:24:00.712Z,22.20
2018-09-14T11:26:29.519Z,22.10
2018-09-14T11:28:58.228Z,22.00
2018-09-14T11:31:27.063Z,22.00
2018-09-14T11:33:56.551Z,22.00
2018-09-14T11:36:25.461Z,22.20
2018-09-14T11:38:54.207Z,22.20
2018-09-14T11:41:22.675Z,22.30
2018-09-14T11:43:51.407Z,22.40
2018-09-14T11:46:20.978Z,22.50
2018-09-14T11:48:50.023Z,22.60
2018-09-14T11:51:18.721Z,22.80
2018-09-14T11:53:47.230Z,23.10
2018-09-14T11:56:15.628Z,23.20
2018-09-14T11:58:44.089Z,23.20
2018-09-14T12:01:12.450Z,23.40
2018-09-14T12:03:40.852Z,23.40
2018-09-14T12:06:09.202Z,23.60
2018-09-14T12:08:37.606Z,23.70
2018-09-14T12:11:06.215Z,23.70
2018-09-14T12:13:35.207Z,23.80
2018-09-14T12:16:03.778Z,24.00
2018-09-14T12:18:32.299Z,24.00
2018-09-14T12:21:00.843Z,24.20
2018-09-14T12:23:29.306Z,24.20
2018-09-14T12:25:57.850Z,24.30
2018-09-14T12:28:26.738Z,24.40
2018-09-14T12:30:55.189Z,24.40
2018-09-14T12:33:23.649Z,24.30
2018-09-14T12:35:52.100Z,24.30
2018-09-14T12:38:20.527Z,24.40
2018-09-14T12:40:49.121Z,24.40
2018-09-14T12:43:17.809Z,24.40
2018-09-14T12:45:46.549Z,24.30
2018-09-14T12:48:15.108Z,24.30
2018-09-14T12:50:43.778Z,24.30
2018-09-14T12:53:12.330Z,24.30
2018-09-14T12:55:40.725Z,24.30
2018-09-14T12:58:09.405Z,24.40
2018-09-14T13:00:38.077Z,24.40
2018-09-14T13:03:06.803Z,24.30
2018-09-14T13:05:35.323Z,24.20
2018-09-14T13:08:03.860Z,24.00
2018-09-14T13:10:32.260Z,23.80
2018-09-14T13:13:00.915Z,23.80
2018-09-14T13:15:29.776Z,23.80
2018-09-14T13:17:58.434Z,23.80
2018-09-14T13:20:27.791Z,23.80
2018-09-14T13:22:57.227Z,23.90
2018-09-14T13:25:26.657Z,24.10
2018-09-14T13:27:55.798Z,24.40
2018-09-14T13:30:24.779Z,24.50
2018-09-14T13:32:54.200Z,24.60
2018-09-14T13:35:24.561Z,24.60
2018-09-14T13:37:54.396Z,24.60
2018-09-14T13:40:23.458Z,24.80
2018-09-14T13:42:52.720Z,24.80
2018-09-14T13:45:22.430Z,24.80
2018-09-14T13:47:51.445Z,24.70
2018-09-14T13:50:21.322Z,24.80
2018-09-14T13:52:50.307Z,25.10
2018-09-14T13:55:19.908Z,25.00
2018-09-14T13:57:49.114Z,24.90
2018-09-14T14:00:18.189Z,24.80
2018-09-14T14:02:47.089Z,24.90
2018-09-14T14:05:16.257Z,25.10
2018-09-14T14:07:45.943Z,25.10
2018-09-14T14:10:15.372Z,25.20
2018-09-14T14:12:43.776Z,25.30
2018-09-14T14:15:12.453Z,25.20
2018-09-14T14:17:41.106Z,25.20
2018-09-14T14:20:10.235Z,25.10
2018-09-14T14:22:40.959Z,25.10
2018-09-14T14:25:10.410Z,25.20
2018-09-14T14:27:40.128Z,25.30
2018-09-14T14:30:09.341Z,25.20
2018-09-14T14:32:38.266Z,25.30
2018-09-14T14:35:06.942Z,25.30
2018-09-14T14:37:35.514Z,25.50
2018-09-14T14:40:04.522Z,25.60
2018-09-14T14:42:32.987Z,25.40
2018-09-14T14:45:02.020Z,25.30
2018-09-14T14:47:32.006Z,25.30
2018-09-14T14:50:01.361Z,25.40
2018-09-14T14:52:29.707Z,25.50
2018-09-14T14:54:59.206Z,25.60
2018-09-14T14:57:27.690Z,25.80
2018-09-14T14:59:56.158Z,25.80
2018-09-14T15:02:24.568Z,25.90
2018-09-14T15:04:52.938Z,25.80
2018-09-14T15:07:21.560Z,25.70
2018-09-14T15:09:49.984Z,25.70
2018-09-14T15:12:18.451Z,25.70
2018-09-14T15:14:46.845Z,25.80
2018-09-14T15:17:15.188Z,25.80
2018-09-14T15:19:43.601Z,25.70
2018-09-14T15:22:12.052Z,25.60
2018-09-14T15:24:40.480Z,25.30
2018-09-14T15:27:08.854Z,25.10
2018-09-14T15:29:37.735Z,24.90
2018-09-14T15:32:06.998Z,24.80
2018-09-14T15:34:36.483Z,24.80
2018-09-14T15:37:06.633Z,24.80
2018-09-14T15:39:35.943Z,24.90
2018-09-14T15:42:06.287Z,24.70
2018-09-14T15:44:35.936Z,24.50
2018-09-14T15:47:06.015Z,24.30
2018-09-14T15:49:35.074Z,24.10
2018-09-14T15:52:04.128Z,23.90
2018-09-14T15:54:32.899Z,23.90
2018-09-14T15:57:01.890Z,23.90
2018-09-14T15:59:30.894Z,23.80
2018-09-14T16:02:00.640Z,23.80
2018-09-14T16:04:29.354Z,23.70
2018-09-14T16:06:57.863Z,23.60
2018-09-14T16:09:26.443Z,23.50
2018-09-14T16:11:55.239Z,23.40
2018-09-14T16:14:23.902Z,23.40
2018-09-14T16:16:52.302Z,23.20
2018-09-14T16:19:23.213Z,23.10
2018-09-14T16:21:52.840Z,23.00
2018-09-14T16:24:22.229Z,23.00
2018-09-14T16:26:51.307Z,23.10
2018-09-14T16:29:21.123Z,23.10
2018-09-14T16:31:49.522Z,23.00
2018-09-14T16:34:17.965Z,23.00
2018-09-14T16:36:46.539Z,22.90
2018-09-14T16:39:14.983Z,22.80
2018-09-14T16:41:43.405Z,22.80
2018-09-14T16:44:11.898Z,22.80
2018-09-14T16:46:40.309Z,22.80
2018-09-14T16:49:09.201Z,22.90
2018-09-14T16:51:37.661Z,22.90
2018-09-14T16:54:06.007Z,23.00
2018-09-14T16:56:34.693Z,23.00
2018-09-14T16:59:03.160Z,23.10
2018-09-14T17:01:31.650Z,23.10
2018-09-14T17:04:00.091Z,23.10
2018-09-14T17:06:28.425Z,23.10
2018-09-14T17:08:56.868Z,23.00
2018-09-14T17:11:25.368Z,22.80
2018-09-14T17:13:53.801Z,22.60
2018-09-14T17:16:22.449Z,22.50
2018-09-14T17:18:50.846Z,22.50
2018-09-14T17:21:19.229Z,22.40
2018-09-14T17:23:47.601Z,22.40
2018-09-14T17:26:16.111Z,22.20
2018-09-14T17:28:44.575Z,22.20
2018-09-14T17:31:13.055Z,22.10
2018-09-14T17:33:41.679Z,22.00
2018-09-14T17:36:10.117Z,21.90
2018-09-14T17:38:38.556Z,21.90
2018-09-14T17:41:06.986Z,21.70
2018-09-14T17:43:35.373Z,21.60
2018-09-14T17:46:03.756Z,21.50
2018-09-14T17:48:33.993Z,21.50
2018-09-14T17:51:04.173Z,21.50
2018-09-14T17:53:34.323Z,21.50
2018-09-14T17:56:04.431Z,21.40
2018-09-14T17:58:34.415Z,21.30
2018-09-14T18:01:04.740Z,21.30
2018-09-14T18:03:35.516Z,21.20
2018-09-14T18:06:06.738Z,21.20
2018-09-14T18:08:35.118Z,21.20
2018-09-14T18:11:03.515Z,21.20
2018-09-14T18:13:31.932Z,21.20
2018-09-14T18:16:00.334Z,21.20
2018-09-14T18:18:29.940Z,21.20
2018-09-14T18:20:58.385Z,21.20
2018-09-14T18:23:26.830Z,21.20
2018-09-14T18:25:55.345Z,21.20
2018-09-14T18:28:23.897Z,21.10
2018-09-14T18:30:52.285Z,21.10
2018-09-14T18:33:20.656Z,21.10
2018-09-14T18:35:49.112Z,21.00
2018-09-14T18:38:17.423Z,20.90
2018-09-14T18:40:45.795Z,20.90
2018-09-14T18:43:14.684Z,20.80
2018-09-14T18:45:43.107Z,20.70
2018-09-14T18:48:12.436Z,20.60
2018-09-14T18:50:40.869Z,20.50
2018-09-14T18:53:09.368Z,20.50
2018-09-14T18:55:38.034Z,20.50
2018-09-14T18:58:06.556Z,20.40
2018-09-14T19:00:35.088Z,20.30
2018-09-14T19:03:03.585Z,20.30
2018-09-14T19:05:32.399Z,20.30
2018-09-14T19:08:01.008Z,20.20
2018-09-14T19:10:29.527Z,20.20
2018-09-14T19:12:57.980Z,20.20
2018-09-14T19:15:26.428Z,20.20
2018-09-14T19:17:55.151Z,20.20
2018-09-14T19:20:23.687Z,20.20
2018-09-14T19:22:52.307Z,20.10
2018-09-14T19:25:20.819Z,20.10
2018-09-14T19:27:49.509Z,20.10
2018-09-14T19:30:18.074Z,20.10
2018-09-14T19:32:46.769Z,20.00
2018-09-14T19:35:15.233Z,20.00
2018-09-14T19:37:44.234Z,20.00
2018-09-14T19:40:13.005Z,20.00
2018-09-14T19:42:41.886Z,19.90
2018-09-14T19:45:10.661Z,19.90
2018-09-14T19:47:39.368Z,20.00
2018-09-14T19:50:08.032Z,20.00
2018-09-14T19:52:37.330Z,20.00
2018-09-14T19:55:06.049Z,20.00
2018-09-14T19:57:34.656Z,19.90
2018-09-14T20:00:03.476Z,19.90
2018-09-14T20:02:31.903Z,19.90
2018-09-14T20:05:00.478Z,19.90
2018-09-14T20:07:29.026Z,19.90
2018-09-14T20:09:57.916Z,19.80
2018-09-14T20:12:26.759Z,19.80
2018-09-14T20:16:09.743Z,19.80
2018-09-14T20:18:39.314Z,19.70
2018-09-14T20:21:07.872Z,19.60
2018-09-14T20:23:36.916Z,19.50
2018-09-14T20:26:05.583Z,19.50
2018-09-14T20:28:35.360Z,19.50
2018-09-14T20:31:04.228Z,19.50
2018-09-14T20:33:32.863Z,19.50
2018-09-14T20:36:01.375Z,19.50
2018-09-14T20:38:30.109Z,19.40
2018-09-14T20:40:58.498Z,19.40
2018-09-14T20:43:27.146Z,19.50
2018-09-14T20:45:55.747Z,19.50
2018-09-14T20:48:24.284Z,19.50
2018-09-14T20:50:52.830Z,19.50
2018-09-14T20:53:21.240Z,19.50
2018-09-14T20:55:49.727Z,19.60
2018-09-14T20:58:19.245Z,19.60
2018-09-14T21:00:47.776Z,19.60
2018-09-14T21:03:16.453Z,19.50
2018-09-14T21:05:44.937Z,19.50
2018-09-14T21:08:13.955Z,19.50
2018-09-14T21:10:42.509Z,19.50
2018-09-14T21:13:11.554Z,19.50
2018-09-14T21:15:39.950Z,19.50
2018-09-14T21:18:08.701Z,19.50
2018-09-14T21:20:37.788Z,19.30
2018-09-14T21:23:06.297Z,19.30
2018-09-14T21:25:34.700Z,19.30
2018-09-14T21:28:03.512Z,19.20
2018-09-14T21:30:32.402Z,19.20
2018-09-14T21:33:00.927Z,19.20
2018-09-14T21:35:29.376Z,19.20
2018-09-14T21:37:57.750Z,19.20
2018-09-14T21:40:26.779Z,19.20
2018-09-14T21:42:55.177Z,19.20
2018-09-14T21:45:23.535Z,19.20
2018-09-14T21:47:52.074Z,19.20
2018-09-14T21:50:20.462Z,19.20
2018-09-14T21:52:48.955Z,19.20
2018-09-14T21:55:17.360Z,19.10
2018-09-14T21:57:45.817Z,19.20
2018-09-14T22:00:19.509Z,19.10
2018-09-14T22:02:47.921Z,19.10
2018-09-14T22:05:16.315Z,19.10
2018-09-14T22:07:44.763Z,18.90
2018-09-14T22:10:13.308Z,18.90
2018-09-14T22:12:41.727Z,18.80
2018-09-14T22:15:10.270Z,18.70
2018-09-14T22:17:38.636Z,18.70
2018-09-14T22:20:07.251Z,18.70
2018-09-14T22:22:35.748Z,18.70
2018-09-14T22:25:04.247Z,18.80
2018-09-14T22:27:32.918Z,18.90
2018-09-14T22:30:01.456Z,18.90
2018-09-14T22:32:29.884Z,19.00
2018-09-14T22:34:58.617Z,19.00
2018-09-14T22:37:27.132Z,19.00
2018-09-14T22:39:55.643Z,19.00
2018-09-14T22:42:24.062Z,19.00
2018-09-14T22:44:52.400Z,19.00
2018-09-14T22:47:20.829Z,19.00
2018-09-14T22:49:49.208Z,19.00
2018-09-14T22:52:17.611Z,18.90
2018-09-14T22:54:45.979Z,18.90
2018-09-14T22:57:14.522Z,18.80
2018-09-14T22:59:43.023Z,18.70
2018-09-14T23:02:11.493Z,18.70
2018-09-14T23:04:39.825Z,18.70
2018-09-14T23:07:08.291Z,18.70
2018-09-14T23:09:36.723Z,18.60
2018-09-14T23:12:05.323Z,18.60
2018-09-14T23:14:33.699Z,18.60
2018-09-14T23:17:02.101Z,18.60
2018-09-14T23:19:30.443Z,18.50
2018-09-14T23:21:58.974Z,18.50
2018-09-14T23:24:28.813Z,18.50
2018-09-14T23:26:58.381Z,18.50
2018-09-14T23:29:27.470Z,18.50
2018-09-14T23:31:57.388Z,18.50
2018-09-14T23:34:26.966Z,18.50
2018-09-14T23:36:56.683Z,18.50
2018-09-14T23:39:26.286Z,18.40
2018-09-14T23:41:56.306Z,18.40
2018-09-14T23:44:26.940Z,18.40
2018-09-14T23:46:56.105Z,18.30
2018-09-14T23:49:25.603Z,18.30
2018-09-14T23:51:55.759Z,18.30
2018-09-14T23:54:24.666Z,18.20
2018-09-14T23:56:53.376Z,18.20
2018-09-14T23:59:23.254Z,18.10
